Time;durP1;ratioP1;P1;durP2;ratioP2;P2;SDS_P1;SDS_P2;PMS_P1;PMS_P2;Temp;Humidity;BMP_temperature;BMP_pressure;BME280_temperature;BME280_humidity;BME280_pressure;Samples;Min_cycle;Max_cycle;Signal;HPM_P1;HPM_P2
2021/07/12 00:04:18;;;;;;;11.13;7.60;;;;;;;19.55;100.00;94616.44;10572130;28;20266;-80
2021/07/12 00:09:18;;;;;;;9.98;6.60;;;;;;;19.51;100.00;94621.75;10554162;28;20024;-81
2021/07/12 00:14:18;;;;;;;13.10;7.17;;;;;;;19.53;100.00;94618.69;10575143;28;20089;-81
2021/07/12 00:19:19;;;;;;;14.10;7.43;;;;;;;19.56;100.00;94618.03;10557237;28;20261;-80
2021/07/12 00:24:20;;;;;;;11.63;7.73;;;;;;;19.53;100.00;94614.03;10574749;28;20051;-80
2021/07/12 00:29:20;;;;;;;11.63;7.13;;;;;;;19.49;100.00;94632.19;10558592;28;20135;-80
2021/07/12 00:34:20;;;;;;;10.70;7.30;;;;;;;19.49;100.00;94634.91;10576718;28;20115;-80
2021/07/12 00:39:21;;;;;;;11.07;7.67;;;;;;;19.30;100.00;94633.44;10573862;28;20028;-80
2021/07/12 00:44:21;;;;;;;10.48;6.15;;;;;;;19.34;100.00;94633.59;10552481;28;20022;-80
2021/07/12 00:49:22;;;;;;;10.70;6.65;;;;;;;19.19;100.00;94626.81;10571639;28;20027;-79
2021/07/12 00:54:27;;;;;;;12.88;7.57;;;;;;;19.13;100.00;94628.09;10578385;28;20024;-81
2021/07/12 00:59:27;;;;;;;10.48;7.47;;;;;;;19.15;100.00;94636.75;10560405;28;20016;-82
2021/07/12 01:04:28;;;;;;;15.80;7.83;;;;;;;19.09;100.00;94633.44;10578419;28;20417;-82
2021/07/12 01:09:28;;;;;;;11.00;7.55;;;;;;;19.19;100.00;94624.06;10578204;28;20474;-82
2021/07/12 01:14:31;;;;;;;11.67;7.70;;;;;;;19.33;100.00;94629.28;10559227;28;20023;-82
2021/07/12 01:20:07;;;;;;;14.07;6.93;;;;;;;19.32;100.00;94624.16;10553566;28;20110;-80
2021/07/12 01:25:13;;;;;;;12.98;6.95;;;;;;;19.34;100.00;94619.97;10573775;28;20047;-80
2021/07/12 01:30:36;;;;;;;14.73;8.07;;;;;;;19.28;100.00;94632.19;10553568;28;20028;-80
2021/07/12 01:35:59;;;;;;;9.60;7.07;;;;;;;19.28;100.00;94632.19;10569726;28;20030;-79
2021/07/12 01:41:18;;;;;;;14.93;7.13;;;;;;;19.28;100.00;94633.00;10569915;28;20055;-79
2021/07/12 01:46:41;;;;;;;10.80;8.15;;;;;;;19.29;100.00;94623.69;10569699;28;20016;-79
2021/07/12 01:51:49;;;;;;;10.52;7.80;;;;;;;19.26;100.00;94629.78;10552829;28;20032;-79
2021/07/12 01:56:55;;;;;;;13.27;7.57;;;;;;;19.25;100.00;94636.38;10568959;28;20882;-80
2021/07/12 02:01:57;;;;;;;10.77;7.50;;;;;;;18.78;100.00;94644.59;10554930;28;20038;-80
2021/07/12 02:06:59;;;;;;;15.55;8.27;;;;;;;18.65;100.00;94654.59;10556174;28;20034;-81
2021/07/12 02:12:01;;;;;;;12.27;7.82;;;;;;;18.69;100.00;94649.31;10575063;28;20026;-81
2021/07/12 02:17:04;;;;;;;11.65;8.50;;;;;;;18.72;100.00;94644.00;10558024;28;20016;-81
2021/07/12 02:22:05;;;;;;;15.07;10.20;;;;;;;18.42;100.00;94646.69;10575532;28;20043;-81
2021/07/12 02:27:06;;;;;;;13.52;9.77;;;;;;;18.39;100.00;94650.06;10578610;28;20027;-80
2021/07/12 02:32:07;;;;;;;18.00;10.98;;;;;;;18.26;100.00;94646.38;10580784;28;20027;-81
2021/07/12 02:37:09;;;;;;;15.75;9.32;;;;;;;18.30;100.00;94646.56;10553700;28;20176;-81
2021/07/12 02:42:10;;;;;;;15.93;9.23;;;;;;;18.35;100.00;94638.22;10562505;28;20058;-81
2021/07/12 02:47:10;;;;;;;17.15;9.02;;;;;;;18.31;100.00;94650.06;10564104;28;20061;-81
2021/07/12 02:52:38;;;;;;;13.85;8.70;;;;;;;18.37;100.00;94648.78;10578437;28;20031;-79
2021/07/12 02:57:40;;;;;;;21.60;10.48;;;;;;;18.22;100.00;94640.03;10564237;28;20031;-79
2021/07/12 03:02:41;;;;;;;19.23;9.98;;;;;;;18.29;100.00;94650.38;10578469;28;20028;-79
2021/07/12 03:07:47;;;;;;;13.55;9.68;;;;;;;18.19;100.00;94648.81;10560862;28;20035;-79
2021/07/12 03:12:50;;;;;;;16.98;9.70;;;;;;;18.17;100.00;94637.47;10578463;28;20110;-79
2021/07/12 03:17:53;;;;;;;12.93;9.35;;;;;;;18.13;100.00;94636.53;10560441;28;20039;-79
2021/07/12 03:22:56;;;;;;;18.15;9.15;;;;;;;18.10;100.00;94654.28;10577729;28;20401;-79
2021/07/12 03:27:58;;;;;;;18.65;9.45;;;;;;;18.12;100.00;94651.22;10577482;28;20063;-79
2021/07/12 03:33:00;;;;;;;14.25;8.90;;;;;;;18.20;100.00;94646.91;10575382;28;20046;-79
2021/07/12 03:38:02;;;;;;;10.90;8.68;;;;;;;18.26;100.00;94651.81;10574415;28;20032;-77
2021/07/12 03:43:03;;;;;;;15.35;9.13;;;;;;;18.34;100.00;94649.44;10570729;28;20032;-75
2021/07/12 03:48:04;;;;;;;13.35;9.43;;;;;;;18.40;100.00;94648.91;10567822;28;20059;-76
2021/07/12 03:53:05;;;;;;;13.93;9.02;;;;;;;18.58;100.00;94657.81;10568714;28;20043;-76
2021/07/12 03:58:05;;;;;;;17.10;9.63;;;;;;;18.72;100.00;94662.25;10568918;28;20023;-76
2021/07/12 04:03:06;;;;;;;17.07;10.30;;;;;;;18.70;100.00;94659.06;10568127;28;20334;-76
2021/07/12 04:08:06;;;;;;;15.40;10.23;;;;;;;18.88;100.00;94657.09;10569315;28;20019;-76
2021/07/12 04:13:08;;;;;;;14.65;9.30;;;;;;;19.02;100.00;94656.84;10569634;28;20024;-76
2021/07/12 04:18:09;;;;;;;13.40;8.65;;;;;;;19.02;100.00;94662.31;10568692;28;20491;-76
2021/07/12 04:23:10;;;;;;;17.85;8.52;;;;;;;19.28;100.00;94662.16;10568587;28;20158;-76
2021/07/12 04:28:10;;;;;;;16.15;9.30;;;;;;;19.57;100.00;94671.44;10562513;28;20039;-76
2021/07/12 04:33:11;;;;;;;22.00;9.70;;;;;;;19.74;100.00;94676.72;10530791;28;20024;-76
2021/07/12 04:38:11;;;;;;;13.27;9.70;;;;;;;19.88;100.00;94672.97;10526447;28;20069;-76
2021/07/12 04:43:12;;;;;;;18.93;8.47;;;;;;;20.15;100.00;94672.41;10539457;28;20023;-76
2021/07/12 04:48:12;;;;;;;16.42;9.40;;;;;;;20.32;100.00;94668.72;10532745;28;20035;-76
2021/07/12 04:53:12;;;;;;;16.00;10.10;;;;;;;21.09;100.00;94669.31;10549230;28;20070;-76
2021/07/12 04:58:13;;;;;;;14.97;9.20;;;;;;;21.67;100.00;94667.22;10566908;28;20020;-76
2021/07/12 05:03:17;;;;;;;16.88;9.55;;;;;;;22.41;100.00;94677.09;10528094;28;20274;-76
2021/07/12 05:08:17;;;;;;;13.60;8.55;;;;;;;23.14;100.00;94671.53;10525875;28;20110;-76
2021/07/12 05:13:18;;;;;;;24.40;8.27;;;;;;;23.68;100.00;94667.22;10563950;28;20540;-76
2021/07/12 05:18:18;;;;;;;12.10;7.75;;;;;;;24.37;100.00;94667.50;10565172;28;20023;-76
2021/07/12 05:23:19;;;;;;;13.97;7.57;;;;;;;24.93;98.50;94670.88;10580235;28;20900;-76
2021/07/12 05:28:20;;;;;;;15.35;7.40;;;;;;;24.96;96.70;94672.09;10608764;27;20135;-77
2021/07/12 05:33:20;;;;;;;10.55;6.90;;;;;;;25.13;92.88;94665.28;10590470;27;20019;-76
2021/07/12 05:38:21;;;;;;;11.23;6.83;;;;;;;25.82;89.95;94673.41;10609059;27;20030;-76
2021/07/12 05:43:21;;;;;;;12.27;7.20;;;;;;;25.88;90.46;94663.66;10608229;28;20268;-76
2021/07/12 05:48:21;;;;;;;13.13;7.30;;;;;;;26.80;83.74;94664.34;10608498;27;20027;-76
2021/07/12 05:53:22;;;;;;;25.77;7.10;;;;;;;27.44;79.00;94666.06;10597482;27;20106;-76
2021/07/12 05:58:22;;;;;;;15.32;7.30;;;;;;;27.22;76.63;94665.09;10586913;28;20036;-76
2021/07/12 06:03:23;;;;;;;17.37;7.63;;;;;;;27.87;76.59;94673.84;10573783;27;20029;-77
2021/07/12 06:08:23;;;;;;;20.13;6.97;;;;;;;28.91;67.87;94674.22;10616518;27;20028;-77
2021/07/12 06:13:24;;;;;;;10.87;5.93;;;;;;;29.42;62.08;94671.50;10602465;27;20085;-76
2021/07/12 06:18:24;;;;;;;20.60;7.10;;;;;;;29.91;58.80;94669.09;10600163;27;20106;-76
2021/07/12 06:23:25;;;;;;;11.37;6.63;;;;;;;29.82;57.20;94673.03;10614676;27;20100;-76
2021/07/12 06:28:25;;;;;;;9.50;6.50;;;;;;;30.53;56.70;94664.09;10613593;27;20323;-76
2021/07/12 06:33:28;;;;;;;16.07;8.23;;;;;;;30.41;54.80;94668.88;10588510;27;20096;-76
2021/07/12 06:38:31;;;;;;;16.20;6.68;;;;;;;31.13;52.55;94674.06;10570766;27;20015;-79
2021/07/12 06:43:32;;;;;;;13.00;6.38;;;;;;;31.56;50.60;94667.34;10575389;27;20080;-77
2021/07/12 06:48:32;;;;;;;14.73;6.75;;;;;;;32.37;47.93;94668.91;10570070;28;20880;-75
2021/07/12 06:53:36;;;;;;;11.07;5.70;;;;;;;32.49;46.87;94665.56;10569497;28;20031;-76
2021/07/12 06:58:37;;;;;;;9.13;5.40;;;;;;;32.51;47.50;94662.38;10551983;28;20020;-76
2021/07/12 07:03:37;;;;;;;7.88;5.80;;;;;;;33.10;44.66;94657.59;10554361;27;20031;-76
2021/07/12 07:08:38;;;;;;;12.20;4.67;;;;;;;34.10;42.56;94657.88;10574840;27;20023;-76
2021/07/12 07:13:38;;;;;;;11.97;4.87;;;;;;;34.46;41.09;94659.97;10575796;27;20690;-76
2021/07/12 07:18:39;;;;;;;14.60;5.60;;;;;;;35.21;39.44;94653.94;10581422;27;20035;-75
2021/07/12 07:23:39;;;;;;;12.03;5.30;;;;;;;35.54;38.55;94651.97;10574713;27;20289;-75
2021/07/12 07:28:40;;;;;;;14.87;5.23;;;;;;;35.64;37.87;94650.09;10593779;27;20376;-76
2021/07/12 07:33:41;;;;;;;14.60;4.72;;;;;;;36.54;36.60;94652.50;10614862;27;20038;-76
2021/07/12 07:38:41;;;;;;;11.82;4.75;;;;;;;36.83;35.06;94652.44;10613074;27;20076;-75
2021/07/12 07:43:41;;;;;;;10.23;5.13;;;;;;;37.33;34.71;94641.69;10612015;27;20027;-76
2021/07/12 07:48:42;;;;;;;14.90;5.00;;;;;;;37.70;33.96;94644.06;10610826;27;20030;-75
2021/07/12 07:53:42;;;;;;;10.53;5.17;;;;;;;37.82;32.78;94642.47;10611718;27;20071;-75
2021/07/12 07:58:43;;;;;;;15.47;5.57;;;;;;;38.61;32.10;94637.63;10613067;27;20044;-75
2021/07/12 08:03:43;;;;;;;8.13;4.15;;;;;;;38.89;28.81;94642.63;10594895;27;20490;-76
2021/07/12 08:08:45;;;;;;;8.37;4.63;;;;;;;39.50;28.81;94636.59;10612861;27;20027;-76
2021/07/12 08:13:45;;;;;;;6.05;4.18;;;;;;;39.67;28.04;94632.25;10612863;27;20041;-76
2021/07/12 08:18:46;;;;;;;16.92;4.50;;;;;;;39.81;27.51;94622.44;10612816;27;20031;-76
2021/07/12 08:23:46;;;;;;;9.80;4.50;;;;;;;40.73;26.81;94630.03;10611233;27;20525;-76
2021/07/12 08:28:47;;;;;;;11.27;4.50;;;;;;;40.23;26.83;94630.25;10611874;27;20027;-76
2021/07/12 08:33:47;;;;;;;7.22;4.15;;;;;;;40.35;26.89;94625.72;10612334;27;20023;-76
2021/07/12 08:38:48;;;;;;;6.10;3.67;;;;;;;40.64;25.71;94630.06;10611841;27;20023;-76
2021/07/12 08:43:48;;;;;;;6.57;3.10;;;;;;;40.91;24.18;94620.72;10610895;27;20102;-76
2021/07/12 08:48:49;;;;;;;8.93;4.00;;;;;;;39.34;26.57;94630.00;10578306;27;20023;-78
2021/07/12 08:53:49;;;;;;;7.30;3.75;;;;;;;39.87;25.87;94629.00;10588108;27;20276;-76
2021/07/12 08:58:50;;;;;;;11.90;3.63;;;;;;;40.47;24.71;94621.94;10607151;27;20023;-76
2021/07/12 09:03:53;;;;;;;12.10;3.77;;;;;;;39.97;25.87;94630.56;10583046;27;20297;-75
2021/07/12 09:09:04;;;;;;;11.70;3.50;;;;;;;39.63;26.31;94624.00;10570731;28;20664;-76
2021/07/12 09:14:10;;;;;;;6.65;3.35;;;;;;;39.49;26.67;94624.53;10599971;27;20506;-76
2021/07/12 09:19:18;;;;;;;7.50;3.67;;;;;;;40.59;25.91;94616.63;10611378;27;20494;-76
2021/07/12 09:24:18;;;;;;;4.70;3.20;;;;;;;40.79;24.35;94618.88;10547108;27;20055;-76
2021/07/12 09:29:34;;;;;;;10.03;4.13;;;;;;;37.45;27.41;94620.47;10522875;28;20024;-76
2021/07/12 09:34:36;;;;;;;5.45;3.42;;;;;;;39.10;26.29;94622.09;10520537;28;20023;-76
2021/07/12 09:39:48;;;;;;;5.07;3.25;;;;;;;40.25;25.90;94622.13;10531811;28;20020;-75
2021/07/12 09:44:56;;;;;;;7.90;3.00;;;;;;;42.13;23.50;94615.94;10528492;28;20067;-76
2021/07/12 09:49:59;;;;;;;5.32;3.20;;;;;;;42.71;21.68;94624.22;10537662;28;20032;-76
2021/07/12 09:55:00;;;;;;;4.28;2.95;;;;;;;43.90;20.77;94618.28;10531124;28;20032;-76
2021/07/12 10:00:09;;;;;;;3.87;2.83;;;;;;;43.64;19.10;94613.31;10530880;28;20023;-76
2021/07/12 10:05:13;;;;;;;7.10;4.65;;;;;;;43.64;20.33;94612.50;10535072;28;20095;-75
2021/07/12 10:10:15;;;;;;;126.35;115.30;;;;;;;43.68;20.76;94605.38;10514071;28;20026;-76
2021/07/12 10:15:17;;;;;;;6.28;2.50;;;;;;;45.56;19.21;94610.75;10529851;28;20057;-76
2021/07/12 10:20:19;;;;;;;3.88;2.70;;;;;;;45.95;19.10;94601.66;10530137;28;20054;-75
2021/07/12 10:25:20;;;;;;;4.95;2.67;;;;;;;45.14;17.82;94598.09;10565082;27;20039;-75
2021/07/12 10:30:21;;;;;;;5.53;2.85;;;;;;;44.35;19.73;94581.97;10579702;27;20035;-76
2021/07/12 10:35:36;;;;;;;5.25;2.78;;;;;;;45.61;19.73;94578.78;10590721;27;20027;-76
2021/07/12 10:40:45;;;;;;;7.35;2.33;;;;;;;45.45;19.60;94565.25;10557284;27;20124;-76
2021/07/12 10:45:49;;;;;;;8.98;2.85;;;;;;;44.36;19.44;94572.19;10570242;28;20019;-76
2021/07/12 10:50:52;;;;;;;5.13;2.85;;;;;;;44.38;20.04;94569.63;10575657;27;20417;-76
2021/07/12 10:55:58;;;;;;;11.27;3.70;;;;;;;40.14;24.19;94582.41;10572162;28;20031;-75
2021/07/12 11:01:02;;;;;;;6.50;4.00;;;;;;;41.65;22.38;94572.41;10579236;27;20027;-75
2021/07/12 11:06:08;;;;;;;9.82;3.80;;;;;;;40.20;23.63;94580.53;10571631;28;20095;-75
2021/07/12 11:11:09;;;;;;;;;;;;;;;37.29;26.21;94582.16;10573019;28;20023;-75
2021/07/12 11:16:18;;;;;;;5.60;3.97;;;;;;;35.80;28.64;94584.97;10573143;28;19919;-75
2021/07/12 11:21:29;;;;;;;5.32;3.60;;;;;;;35.36;28.96;94582.53;10572209;28;20134;-75
2021/07/12 11:26:30;;;;;;;8.85;4.13;;;;;;;34.77;30.34;94589.13;10531370;28;20066;-75
2021/07/12 11:31:49;;;;;;;5.40;4.03;;;;;;;34.30;29.19;94579.81;10529452;28;20030;-75
2021/07/12 11:37:04;;;;;;;7.80;4.10;;;;;;;33.96;29.38;94566.16;10511246;28;20032;-76
2021/07/12 11:42:17;;;;;;;7.97;3.55;;;;;;;33.29;30.06;94569.78;10528887;28;20023;-75
2021/07/12 11:47:21;;;;;;;4.82;3.85;;;;;;;33.02;31.73;94556.69;10529291;28;20036;-75
2021/07/12 11:52:23;;;;;;;7.38;3.67;;;;;;;33.05;30.41;94562.19;10528919;28;20824;-75
2021/07/12 11:57:23;;;;;;;5.18;3.25;;;;;;;32.22;31.09;94562.63;10527311;28;20031;-75
2021/07/12 12:02:24;;;;;;;6.60;3.83;;;;;;;32.27;31.33;94558.59;10528556;28;20039;-76
2021/07/12 12:07:29;;;;;;;7.10;3.70;;;;;;;32.10;31.32;94561.16;10528314;28;20024;-75
2021/07/12 12:12:32;;;;;;;8.10;3.47;;;;;;;31.76;31.43;94550.88;10528729;28;20028;-75
2021/07/12 12:17:38;;;;;;;9.48;3.63;;;;;;;31.17;32.30;94547.13;10527857;28;20032;-75
2021/07/12 12:23:07;;;;;;;13.60;3.90;;;;;;;31.24;32.25;94543.47;10532191;28;20878;-75
2021/07/12 12:28:07;;;;;;;6.85;4.18;;;;;;;31.21;32.25;94554.63;10527396;28;20032;-75
2021/07/12 12:33:08;;;;;;;11.43;3.35;;;;;;;30.94;31.36;94544.13;10527316;28;20036;-75
2021/07/12 12:38:10;;;;;;;6.10;3.47;;;;;;;31.07;31.44;94548.00;10526402;28;20028;-75
2021/07/12 12:43:17;;;;;;;5.72;3.05;;;;;;;30.68;32.05;94543.53;10526165;28;20035;-76
2021/07/12 12:48:36;;;;;;;10.60;4.03;;;;;;;30.74;32.84;94538.34;10527133;28;20028;-75
2021/07/12 12:53:36;;;;;;;5.32;4.05;;;;;;;30.65;32.99;94538.81;10526595;28;20040;-75
2021/07/12 12:58:37;;;;;;;5.93;3.70;;;;;;;30.60;31.95;94526.19;10525407;28;20028;-75
2021/07/12 13:03:37;;;;;;;6.73;3.10;;;;;;;30.70;31.87;94534.81;10525280;28;20100;-75
2021/07/12 13:08:37;;;;;;;13.70;3.73;;;;;;;30.77;32.13;94530.00;10525005;28;20028;-75
2021/07/12 13:13:38;;;;;;;4.03;3.17;;;;;;;31.01;31.66;94527.41;10525194;28;20028;-75
2021/07/12 13:18:39;;;;;;;5.88;3.10;;;;;;;30.43;32.85;94519.53;10557213;28;20277;-75
2021/07/12 13:23:46;;;;;;;6.80;3.45;;;;;;;30.43;33.04;94519.53;10567442;27;20099;-75
2021/07/12 13:28:46;;;;;;;6.22;3.53;;;;;;;30.47;33.55;94527.84;10589224;27;20032;-75
2021/07/12 13:33:47;;;;;;;5.97;3.47;;;;;;;30.37;33.24;94517.59;10567579;28;20475;-75
2021/07/12 13:38:47;;;;;;;5.68;3.85;;;;;;;30.51;33.83;94511.97;10567976;28;20034;-75
2021/07/12 13:43:48;;;;;;;9.03;3.93;;;;;;;30.19;33.74;94515.72;10567632;28;20055;-75
2021/07/12 13:48:48;;;;;;;7.23;3.77;;;;;;;30.22;33.79;94526.00;10566978;28;20513;-75
2021/07/12 13:53:48;;;;;;;7.97;4.47;;;;;;;30.20;34.52;94527.59;10567251;28;20059;-75
2021/07/12 13:58:49;;;;;;;5.80;4.03;;;;;;;29.90;33.67;94531.72;10567285;28;20059;-75
2021/07/12 14:03:49;;;;;;;8.55;3.17;;;;;;;29.80;32.76;94520.25;10549315;28;20047;-75
2021/07/12 14:08:50;;;;;;;5.07;3.30;;;;;;;29.67;33.58;94514.38;10568019;28;20038;-75
2021/07/12 14:13:50;;;;;;;6.93;3.90;;;;;;;29.43;35.12;94515.25;10569046;28;20120;-76
2021/07/12 14:18:52;;;;;;;4.30;3.57;;;;;;;29.47;34.76;94516.03;10551251;28;20620;-75
2021/07/12 14:23:52;;;;;;;4.75;3.70;;;;;;;29.39;33.29;94506.97;10598960;27;20501;-74
2021/07/12 14:28:53;;;;;;;12.37;3.90;;;;;;;29.48;32.99;94514.84;10598381;27;20039;-74
2021/07/12 14:33:53;;;;;;;4.97;3.58;;;;;;;29.56;32.70;94504.56;10600649;27;20273;-74
2021/07/12 14:38:54;;;;;;;6.33;4.13;;;;;;;29.44;34.97;94509.34;10618881;27;20030;-74
2021/07/12 14:43:54;;;;;;;4.73;3.30;;;;;;;29.33;34.44;94503.03;10609736;27;20320;-74
2021/07/12 14:48:54;;;;;;;8.33;3.77;;;;;;;29.32;34.52;94502.25;10609322;27;20034;-74
2021/07/12 14:53:55;;;;;;;4.07;3.30;;;;;;;29.34;34.51;94498.31;10613296;27;20031;-78
2021/07/12 14:58:55;;;;;;;5.07;4.17;;;;;;;29.46;33.93;94498.66;10619035;27;20501;-75
2021/07/12 15:03:56;;;;;;;5.32;3.60;;;;;;;29.38;34.02;94488.78;10618984;27;20280;-75
2021/07/12 15:08:56;;;;;;;10.13;3.00;;;;;;;29.40;33.95;94500.25;10615517;27;20110;-74
2021/07/12 15:13:56;;;;;;;6.23;3.47;;;;;;;29.48;33.94;94487.16;10592231;27;20150;-75
2021/07/12 15:18:59;;;;;;;6.60;3.60;;;;;;;29.48;33.26;94487.94;10616685;27;20088;-74
2021/07/12 15:23:59;;;;;;;5.32;3.47;;;;;;;29.33;34.88;94491.97;10613298;27;20050;-75
2021/07/12 15:28:59;;;;;;;9.80;5.20;;;;;;;29.32;33.87;94490.41;10615288;27;20798;-75
2021/07/12 15:34:00;;;;;;;7.23;4.93;;;;;;;29.25;32.95;94490.41;10616771;27;20035;-75
2021/07/12 15:39:01;;;;;;;5.37;3.57;;;;;;;29.22;33.35;94494.75;10618435;27;20090;-75
2021/07/12 15:44:01;;;;;;;6.53;3.72;;;;;;;29.17;33.50;94483.31;10618368;27;20273;-75
2021/07/12 15:49:01;;;;;;;4.35;3.42;;;;;;;29.17;33.37;94489.63;10617295;27;20031;-75
2021/07/12 15:54:04;;;;;;;5.47;4.10;;;;;;;29.14;33.43;94485.66;10584501;27;20042;-75
2021/07/12 15:59:05;;;;;;;5.30;3.45;;;;;;;28.97;33.46;94494.81;10574770;28;20098;-75
2021/07/12 16:04:05;;;;;;;6.77;3.30;;;;;;;28.89;33.78;94491.25;10574665;28;20447;-75
2021/07/12 16:09:05;;;;;;;5.97;3.65;;;;;;;28.90;33.49;94494.81;10574438;28;20479;-75
2021/07/12 16:14:06;;;;;;;4.30;3.23;;;;;;;28.92;34.16;94495.22;10574372;28;20035;-75
2021/07/12 16:19:06;;;;;;;8.75;3.58;;;;;;;28.83;33.88;94497.59;10573940;28;20016;-75
2021/07/12 16:24:07;;;;;;;6.32;3.25;;;;;;;28.77;33.76;94505.50;10555660;28;20062;-75
2021/07/12 16:29:07;;;;;;;6.10;3.43;;;;;;;28.73;33.92;94502.75;10574338;28;20027;-75
2021/07/12 16:34:09;;;;;;;11.03;4.40;;;;;;;28.61;33.34;94506.66;10573723;28;20759;-75
2021/07/12 16:39:11;;;;;;;6.20;3.42;;;;;;;28.51;33.66;94503.88;10573485;28;20047;-75
2021/07/12 16:44:11;;;;;;;4.45;2.95;;;;;;;28.53;34.53;94513.38;10573145;28;20035;-75
2021/07/12 16:49:11;;;;;;;4.70;3.07;;;;;;;28.51;34.31;94517.72;10572978;28;20114;-75
2021/07/12 16:54:12;;;;;;;3.80;3.10;;;;;;;28.31;35.14;94523.63;10572805;28;20027;-75
2021/07/12 16:59:13;;;;;;;4.93;3.67;;;;;;;27.34;40.25;94524.06;10555469;28;20027;-75
2021/07/12 17:04:14;;;;;;;6.38;3.80;;;;;;;25.59;46.47;94527.63;10572743;28;20463;-75
2021/07/12 17:09:14;;;;;;;5.33;4.30;;;;;;;25.42;45.99;94520.72;10572492;28;20122;-75
2021/07/12 17:14:14;;;;;;;5.77;4.43;;;;;;;25.40;48.57;94521.13;10572706;28;20067;-75
2021/07/12 17:19:15;;;;;;;7.37;4.47;;;;;;;25.93;45.30;94522.91;10554284;28;20019;-75
2021/07/12 17:24:15;;;;;;;5.93;3.77;;;;;;;26.13;45.42;94519.97;10571081;28;20525;-75
2021/07/12 17:29:16;;;;;;;6.95;3.97;;;;;;;26.27;45.77;94522.06;10551724;28;20297;-75
2021/07/12 17:34:16;;;;;;;7.35;4.50;;;;;;;26.36;46.83;94525.31;10569743;28;20023;-75
2021/07/12 17:39:17;;;;;;;8.33;5.03;;;;;;;26.49;46.15;94531.31;10569446;28;20035;-75
2021/07/12 17:44:20;;;;;;;10.53;3.87;;;;;;;26.63;47.19;94527.91;10570407;28;20027;-75
2021/07/12 17:49:21;;;;;;;9.68;4.40;;;;;;;26.70;48.34;94538.22;10569757;28;20293;-75
2021/07/12 17:54:21;;;;;;;9.23;4.38;;;;;;;26.71;48.56;94537.03;10569536;28;20051;-75
2021/07/12 17:59:21;;;;;;;12.30;4.60;;;;;;;26.74;48.74;94530.78;10576889;28;20030;-75
2021/07/12 18:04:22;;;;;;;13.20;5.47;;;;;;;26.74;49.77;94537.06;10559882;28;20652;-75
2021/07/12 18:09:22;;;;;;;7.30;4.87;;;;;;;26.74;50.61;94533.53;10577826;28;20134;-75
2021/07/12 18:14:23;;;;;;;7.13;5.10;;;;;;;26.74;51.59;94533.53;10577696;28;20031;-75
2021/07/12 18:19:23;;;;;;;11.17;5.17;;;;;;;26.56;52.10;94536.91;10577830;28;20031;-75
2021/07/12 18:24:23;;;;;;;6.97;4.33;;;;;;;26.43;52.02;94541.13;10577387;28;20048;-75
2021/07/12 18:29:24;;;;;;;8.43;5.23;;;;;;;26.29;52.90;94544.53;10578390;27;20816;-75
2021/07/12 18:34:24;;;;;;;10.63;5.27;;;;;;;25.98;54.16;94549.28;10600663;27;20277;-76
2021/07/12 18:39:25;;;;;;;10.15;6.28;;;;;;;25.85;55.88;94564.50;10586463;27;20034;-76
2021/07/12 18:44:25;;;;;;;9.60;6.13;;;;;;;25.63;56.08;94564.22;10592998;27;20039;-80
2021/07/12 18:49:26;;;;;;;13.52;6.45;;;;;;;25.30;58.72;94573.19;10567562;27;20282;-78
2021/07/12 18:54:26;;;;;;;14.30;6.68;;;;;;;25.06;58.86;94581.53;10583556;27;20451;-78
2021/07/12 18:59:26;;;;;;;8.53;5.80;;;;;;;24.86;59.86;94596.53;10567064;27;20019;-79
2021/07/12 19:04:27;;;;;;;8.23;6.17;;;;;;;24.76;61.27;94605.41;10559802;27;20285;-78
2021/07/12 19:09:27;;;;;;;9.45;6.15;;;;;;;24.61;62.16;94615.34;10581979;27;20440;-81
2021/07/12 19:14:28;;;;;;;6.93;6.20;;;;;;;24.54;61.63;94616.78;10571196;27;20042;-77
2021/07/12 19:19:30;;;;;;;10.23;5.93;;;;;;;24.57;62.62;94610.56;10576838;27;20827;-77
2021/07/12 19:24:31;;;;;;;10.38;6.10;;;;;;;24.54;62.10;94613.25;10568387;28;20521;-77
2021/07/12 19:29:31;;;;;;;7.35;5.68;;;;;;;24.48;62.67;94612.75;10568824;28;20032;-77
2021/07/12 19:34:31;;;;;;;10.90;6.22;;;;;;;24.44;64.40;94614.63;10569473;27;20039;-78
2021/07/12 19:39:32;;;;;;;9.20;6.10;;;;;;;24.41;67.16;94631.84;10574912;27;20486;-78
2021/07/12 19:44:37;;;;;;;12.43;6.40;;;;;;;24.26;67.63;94630.00;10567105;28;20023;-77
2021/07/12 19:49:38;;;;;;;11.98;6.82;;;;;;;24.14;69.80;94631.75;10566453;27;20023;-85
2021/07/12 19:54:39;;;;;;;11.20;7.13;;;;;;;24.02;72.51;94629.16;10583473;27;20031;-77
2021/07/12 19:59:39;;;;;;;11.52;6.82;;;;;;;23.86;71.82;94640.16;10578739;27;20027;-78
2021/07/12 20:04:40;;;;;;;11.47;7.03;;;;;;;23.61;73.98;94642.38;10594166;27;20477;-78
2021/07/12 20:09:40;;;;;;;9.88;6.65;;;;;;;23.38;75.87;94638.38;10615006;27;20026;-77
2021/07/12 20:14:41;;;;;;;12.60;6.13;;;;;;;23.16;76.22;94637.13;10575395;27;20103;-77
2021/07/12 20:19:41;;;;;;;10.13;6.87;;;;;;;23.08;77.78;94631.78;10570020;28;20023;-77
2021/07/12 20:24:42;;;;;;;9.37;6.47;;;;;;;23.02;78.60;94643.03;10557483;28;20312;-77
2021/07/12 20:29:42;;;;;;;8.30;6.32;;;;;;;22.95;80.37;94644.78;10530785;28;20032;-77
2021/07/12 20:34:43;;;;;;;8.67;5.80;;;;;;;22.79;81.76;94642.06;10534295;28;20039;-77
2021/07/12 20:39:44;;;;;;;8.48;5.85;;;;;;;22.77;83.42;94645.13;10561443;28;20020;-77
2021/07/12 20:44:46;;;;;;;9.97;6.03;;;;;;;22.77;83.99;94650.63;10529208;28;20056;-77
2021/07/12 20:49:46;;;;;;;9.80;5.78;;;;;;;22.69;85.04;94643.41;10529026;28;20290;-77
2021/07/12 20:54:47;;;;;;;11.73;7.33;;;;;;;22.67;86.92;94653.91;10528136;28;20024;-77
2021/07/12 20:59:48;;;;;;;9.13;6.47;;;;;;;22.63;87.65;94670.25;10543530;28;20024;-76
2021/07/12 21:04:48;;;;;;;8.40;6.47;;;;;;;22.64;88.04;94668.31;10549511;28;20024;-77
2021/07/12 21:09:49;;;;;;;8.97;6.33;;;;;;;22.52;91.01;94671.91;10526498;28;20027;-76
2021/07/12 21:14:49;;;;;;;10.10;6.53;;;;;;;22.22;94.97;94675.00;10557456;28;21044;-76
2021/07/12 21:19:50;;;;;;;8.85;6.95;;;;;;;22.19;96.48;94681.97;10554891;28;20282;-77
2021/07/12 21:24:51;;;;;;;8.68;7.00;;;;;;;22.08;99.24;94678.13;10527467;28;20043;-77
2021/07/12 21:29:53;;;;;;;8.18;6.50;;;;;;;21.88;100.00;94685.41;10529418;28;20039;-77
2021/07/12 21:34:53;;;;;;;13.23;8.60;;;;;;;21.68;100.00;94684.41;10542393;28;20020;-76
2021/07/12 21:39:53;;;;;;;9.47;6.53;;;;;;;21.71;100.00;94682.91;10532806;28;20012;-76
2021/07/12 21:44:54;;;;;;;8.63;7.07;;;;;;;21.64;100.00;94684.31;10510574;28;20285;-77
2021/07/12 21:49:54;;;;;;;9.10;6.50;;;;;;;21.55;100.00;94688.31;10544772;28;20166;-77
2021/07/12 21:54:54;;;;;;;9.13;6.63;;;;;;;21.42;100.00;94677.38;10549016;28;20494;-77
2021/07/12 21:59:55;;;;;;;9.07;7.70;;;;;;;21.12;100.00;94676.81;10541454;28;20019;-77
2021/07/12 22:04:55;;;;;;;10.67;7.40;;;;;;;21.02;100.00;94682.75;10539342;28;20024;-77
2021/07/12 22:09:55;;;;;;;10.73;7.20;;;;;;;20.87;100.00;94686.94;10540688;28;20964;-77
2021/07/12 22:14:56;;;;;;;8.93;7.07;;;;;;;20.72;100.00;94682.94;10542203;28;20477;-76
2021/07/12 22:19:56;;;;;;;11.17;7.37;;;;;;;20.53;100.00;94686.97;10542436;28;20190;-77
2021/07/12 22:24:58;;;;;;;9.63;7.43;;;;;;;20.70;100.00;94685.22;10579951;27;20376;-77
2021/07/12 22:29:58;;;;;;;9.55;6.85;;;;;;;20.82;100.00;94687.97;10583704;27;20122;-77
2021/07/12 22:34:59;;;;;;;8.23;7.03;;;;;;;20.99;100.00;94685.00;10595034;27;20038;-77
2021/07/12 22:39:59;;;;;;;10.48;7.82;;;;;;;21.00;100.00;94680.31;10582411;28;20019;-77
2021/07/12 22:45:00;;;;;;;11.52;7.05;;;;;;;20.98;100.00;94677.16;10602998;27;20050;-77
2021/07/12 22:50:01;;;;;;;12.27;7.67;;;;;;;20.82;100.00;94674.31;10619019;27;20095;-77
2021/07/12 22:55:05;;;;;;;10.00;6.63;;;;;;;20.70;100.00;94679.75;10617688;27;20295;-77
2021/07/12 23:00:12;;;;;;;11.98;7.60;;;;;;;20.43;100.00;94677.28;10607019;27;20024;-77
2021/07/12 23:05:13;;;;;;;11.02;7.45;;;;;;;20.46;100.00;94678.53;10575721;28;20031;-77
2021/07/12 23:10:19;;;;;;;8.75;6.85;;;;;;;20.50;100.00;94671.25;10611682;27;20027;-77
2021/07/12 23:15:22;;;;;;;9.10;7.28;;;;;;;20.51;100.00;94661.91;10576642;27;20028;-77